Terminal Aerodrome Forecast
Issued by NWS Burlington, VT

Current Version | Previous Version | Text Only | Print | Product List | Glossary On
Versions: 1 2 3 4 5 6 7 8 9 10 11 12 13 14 15 16 17 18 19
000
FTUS41 KBTV 280531
TAFBTV
TAF
KBTV 280531Z 2806/2906 VRB03KT P6SM BKN012 OVC024
     FM280900 17004KT 4SM BR OVC015
     FM281200 18005KT 4SM BR VCSH OVC020
     FM281900 VRB06KT 6SM BR VCSH OVC010
     FM282200 34005KT 6SM BR VCSH OVC008
     FM290400 VRB03KT 4SM BR VCSH OVC010=

USA.gov is the U.S. government's official web portal to all federal, state and local government web resources and services.